Pagrindinis puslapis
METAR-TAF:

METAR-TAF

Oro uostai :

Kirkenesas, Norvegija

platuma: 69-44N, ilguma: 029-54E, Aukštis: 9 m

Dabartinis oras

Ataskaita buvo paskelbta 24 minutes, ne 10:20 UTC
Vėjas 13 kt iš Vakarų/Šiaurės Vakarų
Temperatūra -2°C
Drėgmė 74%
Slėgis 971 hPa
Matomumas 10 km arba daugiau
Mažai debesys ne aukštis 3600 ft
Išsisklaidę debesys ne aukštis 7400 ft

METAR: ENKR 181020Z 30013KT 9999 FEW036 SCT074 M02/M06 Q0971 RMK WIND 731FT 29027KT

Laikas: 11:44 (10:44 UTC)

Prognozė

Ataskaita buvo paskelbta 2 valandos ir 44 minutes, ne 08:00 UTC
Prognozė galioja nuo 18 metu 09 UTC su 18 metu 18 UTC
Vėjas 15 kt iš Vakarų/Šiaurės Vakarų
Matomumas 10 km arba daugiau
Mažai debesys ne aukštis 3000 ft

TAF: ENKR 180800Z 1809/1818 29015KT 9999 FEW030

Orai ataskaitas ir orų prognozės (METAR, TAF).

turimą stotys yra geltonos ir raudonos taškus žemėlapyje.

Perkelti pele per norėdami pamatyti stoties vardą.

Tada spustelėkite, norėdami matyti oro stebėjimo ir prognozės.

Norėdami pakeisti žemėlapį: spustelėkite ant žalios mygtukų su juodo kryžiaus žemyn,; žalią mygtuką su brūkšneliu, jei norite nutolinti; arba žalių rodyklių gretimoms žemėlapius.


METAR-TAF: